Time;durP1;ratioP1;P1;durP2;ratioP2;P2;SDS_P1;SDS_P2;PMS_P1;PMS_P2;Temp;Humidity;BMP_temperature;BMP_pressure;BME280_temperature;BME280_humidity;BME280_pressure;Samples;Min_cycle;Max_cycle;Signal;HPM_P1;HPM_P2
2023/06/04 00:01:54;;;;;;;2.70;1.33;;;17.60;63.90;;;;;;5004512;28;20222;-70
2023/06/04 00:04:19;;;;;;;6.13;1.77;;;17.60;63.70;;;;;;4987927;28;20232;-71
2023/06/04 00:06:45;;;;;;;1.50;1.40;;;17.60;64.30;;;;;;4986229;28;20222;-70
2023/06/04 00:09:11;;;;;;;2.20;1.70;;;17.50;64.30;;;;;;5002346;28;20248;-70
2023/06/04 00:11:37;;;;;;;3.10;1.33;;;17.50;63.70;;;;;;5002372;28;20249;-70
2023/06/04 00:14:03;;;;;;;1.53;1.43;;;17.50;64.00;;;;;;5006304;28;20265;-71
2023/06/04 00:16:29;;;;;;;1.77;1.30;;;17.40;63.30;;;;;;5005912;28;20229;-71
2023/06/04 00:18:54;;;;;;;2.83;1.40;;;17.40;64.20;;;;;;5001573;28;20515;-71
2023/06/04 00:21:20;;;;;;;3.33;2.20;;;17.40;64.20;;;;;;5005650;28;20297;-70
2023/06/04 00:23:45;;;;;;;2.53;1.40;;;17.40;64.50;;;;;;5006786;28;20598;-71
2023/06/04 00:26:11;;;;;;;1.63;1.53;;;17.40;64.20;;;;;;5005941;28;20630;-71
2023/06/04 00:28:39;;;;;;;1.33;1.23;;;17.30;63.80;;;;;;5003709;28;20332;-69
2023/06/04 00:31:05;;;;;;;1.13;1.10;;;17.30;64.10;;;;;;4997979;28;20548;-71
2023/06/04 00:33:32;;;;;;;2.03;1.43;;;17.20;64.00;;;;;;5002985;28;20237;-71
2023/06/04 00:35:57;;;;;;;3.90;1.40;;;17.20;64.30;;;;;;5003356;28;20508;-70
2023/06/04 00:38:23;;;;;;;1.40;1.30;;;17.10;63.60;;;;;;5000331;28;20465;-71
2023/06/04 00:40:49;;;;;;;1.57;1.47;;;17.10;64.20;;;;;;5004993;28;20214;-70
2023/06/04 00:43:15;;;;;;;1.83;1.30;;;17.10;63.80;;;;;;4991970;28;20237;-71
2023/06/04 00:45:41;;;;;;;1.30;1.20;;;17.10;63.90;;;;;;5006288;28;20233;-70
2023/06/04 00:48:07;;;;;;;4.50;1.40;;;17.10;64.40;;;;;;4987770;28;20222;-71
2023/06/04 00:50:35;;;;;;;1.73;1.60;;;17.20;64.30;;;;;;4986268;28;20541;-71
2023/06/04 00:53:01;;;;;;;2.70;1.40;;;17.10;63.70;;;;;;5002411;28;20230;-71
2023/06/04 00:55:28;;;;;;;1.40;1.30;;;17.10;64.40;;;;;;4990017;28;21000;-70
2023/06/04 00:57:56;;;;;;;1.20;1.10;;;17.00;64.00;;;;;;5005481;28;20469;-70
2023/06/04 01:00:22;;;;;;;1.50;1.37;;;17.00;64.20;;;;;;4989387;28;20510;-69
2023/06/04 01:02:53;;;;;;;1.90;1.13;;;17.10;64.40;;;;;;5004450;28;20214;-71
2023/06/04 01:05:33;;;;;;;1.60;1.00;;;17.00;64.00;;;;;;5000244;28;20457;-71
2023/06/04 01:07:59;;;;;;;2.33;1.60;;;16.90;64.00;;;;;;5002001;28;20481;-71
2023/06/04 01:10:26;;;;;;;5.13;1.50;;;16.80;63.90;;;;;;4990209;28;20465;-70
2023/06/04 01:12:51;;;;;;;1.67;1.57;;;16.70;64.20;;;;;;5009617;28;20237;-71
2023/06/04 01:15:17;;;;;;;1.97;1.20;;;16.70;64.00;;;;;;4991456;28;20458;-70
2023/06/04 01:17:51;;;;;;;2.60;1.67;;;16.70;64.30;;;;;;4991431;28;20677;-70
2023/06/04 01:20:22;;;;;;;1.30;1.20;;;16.70;64.30;;;;;;5007449;28;20501;-71
2023/06/04 01:22:51;;;;;;;1.83;1.33;;;16.70;64.40;;;;;;4990284;28;20445;-71
2023/06/04 01:25:31;;;;;;;4.50;1.60;;;16.70;64.40;;;;;;5015736;28;20459;-71
2023/06/04 01:27:58;;;;;;;2.00;1.30;;;16.70;64.40;;;;;;5002431;28;20543;-71
2023/06/04 01:30:25;;;;;;;2.77;1.30;;;16.80;64.60;;;;;;4991643;28;20475;-71
2023/06/04 01:32:53;;;;;;;2.53;1.50;;;16.80;64.30;;;;;;4999992;28;20551;-70
2023/06/04 01:35:20;;;;;;;1.70;1.20;;;16.70;64.20;;;;;;5007216;28;20463;-71
2023/06/04 01:37:47;;;;;;;1.33;1.23;;;16.70;64.30;;;;;;5021488;28;20579;-70
2023/06/04 01:40:13;;;;;;;1.70;1.37;;;16.70;64.30;;;;;;5003143;28;20449;-70
2023/06/04 01:42:39;;;;;;;2.23;1.27;;;16.80;64.40;;;;;;5007763;28;20463;-70
2023/06/04 01:45:05;;;;;;;1.50;1.30;;;16.70;64.00;;;;;;5006781;28;20214;-70
2023/06/04 01:47:30;;;;;;;1.60;1.40;;;16.70;63.70;;;;;;5005542;28;20228;-69
2023/06/04 01:49:56;;;;;;;7.50;1.40;;;16.70;64.20;;;;;;5006346;28;20449;-70
2023/06/04 01:52:21;;;;;;;1.27;1.17;;;16.70;63.90;;;;;;5007403;28;20254;-68
2023/06/04 01:54:52;;;;;;;3.53;1.50;;;16.70;64.00;;;;;;5006818;28;20364;-69
2023/06/04 01:57:21;;;;;;;1.60;1.07;;;16.60;64.40;;;;;;5002685;28;20226;-69
2023/06/04 01:59:48;;;;;;;2.20;1.60;;;16.50;63.80;;;;;;5021964;28;20517;-70
2023/06/04 02:02:16;;;;;;;1.40;1.30;;;16.50;63.50;;;;;;4991519;28;20523;-69
2023/06/04 02:04:42;;;;;;;1.50;1.40;;;16.50;63.90;;;;;;4990542;28;20452;-70
2023/06/04 02:07:17;;;;;;;1.70;1.30;;;16.60;63.80;;;;;;4985943;28;20468;-70
2023/06/04 02:09:43;;;;;;;2.47;1.50;;;16.50;64.00;;;;;;5006376;28;20221;-71
2023/06/04 02:12:09;;;;;;;4.03;1.60;;;16.40;63.60;;;;;;5005439;28;20472;-69
2023/06/04 02:14:41;;;;;;;1.33;1.07;;;16.50;63.60;;;;;;4990949;28;20260;-70
2023/06/04 02:17:12;;;;;;;1.63;1.53;;;16.40;63.50;;;;;;5006187;28;20472;-70
2023/06/04 02:19:49;;;;;;;4.20;1.57;;;16.50;63.70;;;;;;5006382;28;20452;-70
2023/06/04 02:22:18;;;;;;;1.47;1.37;;;16.40;63.60;;;;;;5006338;28;20464;-69
2023/06/04 02:24:44;;;;;;;1.70;1.10;;;16.40;63.60;;;;;;5006161;28;20449;-69
2023/06/04 02:27:11;;;;;;;1.67;1.33;;;16.40;63.70;;;;;;4987967;28;20867;-69
2023/06/04 02:29:41;;;;;;;1.37;1.27;;;16.30;63.90;;;;;;5001771;28;20488;-69
2023/06/04 02:32:07;;;;;;;2.00;1.47;;;16.40;63.60;;;;;;5006844;28;20488;-70
2023/06/04 02:34:36;;;;;;;1.47;1.20;;;16.40;63.40;;;;;;5006391;28;20536;-69
2023/06/04 02:37:02;;;;;;;1.33;1.23;;;16.40;63.00;;;;;;5007033;28;20484;-69
2023/06/04 02:39:28;;;;;;;2.50;1.30;;;16.30;63.60;;;;;;5005796;28;20456;-69
2023/06/04 02:41:54;;;;;;;1.30;1.20;;;16.20;63.50;;;;;;5007475;28;20457;-70
2023/06/04 02:44:20;;;;;;;1.20;1.00;;;16.30;63.50;;;;;;5006609;28;20221;-70
2023/06/04 02:46:46;;;;;;;1.67;1.57;;;16.30;63.10;;;;;;4997041;28;20475;-69
2023/06/04 02:49:16;;;;;;;2.80;1.60;;;16.30;63.70;;;;;;5005917;28;20805;-71
2023/06/04 02:51:42;;;;;;;1.40;1.17;;;16.30;63.90;;;;;;4989600;28;20218;-70
2023/06/04 02:54:08;;;;;;;1.90;1.80;;;16.20;63.20;;;;;;4995096;28;20455;-70
2023/06/04 02:56:35;;;;;;;1.43;1.30;;;16.20;63.50;;;;;;5008090;28;20847;-71
2023/06/04 02:59:01;;;;;;;1.80;1.07;;;16.10;63.30;;;;;;5005393;28;20675;-70
2023/06/04 03:01:27;;;;;;;1.90;1.53;;;16.20;64.10;;;;;;4991338;28;21017;-70
2023/06/04 03:03:53;;;;;;;2.30;1.50;;;16.10;63.70;;;;;;4993178;28;20453;-69
2023/06/04 03:06:21;;;;;;;1.43;1.33;;;16.20;63.20;;;;;;5009517;28;20457;-70
2023/06/04 03:08:50;;;;;;;1.97;1.17;;;16.20;63.60;;;;;;5009503;28;20457;-70
2023/06/04 03:11:20;;;;;;;1.73;1.63;;;16.20;63.40;;;;;;4994022;28;20480;-70
2023/06/04 03:13:48;;;;;;;2.70;1.27;;;16.10;63.30;;;;;;5008055;28;20457;-71
2023/06/04 03:16:14;;;;;;;1.27;0.93;;;16.10;63.30;;;;;;5009839;28;20449;-70
2023/06/04 03:18:41;;;;;;;1.43;1.20;;;16.00;63.50;;;;;;5009588;28;20554;-70
2023/06/04 03:21:08;;;;;;;1.33;1.20;;;16.00;63.30;;;;;;5007036;28;20457;-70
2023/06/04 03:23:35;;;;;;;1.63;1.43;;;16.00;63.60;;;;;;5008071;28;20500;-70
2023/06/04 03:26:02;;;;;;;1.50;1.17;;;16.00;63.90;;;;;;4991663;28;20453;-70
2023/06/04 03:28:29;;;;;;;1.27;1.13;;;15.90;63.40;;;;;;4994716;28;20492;-70
2023/06/04 03:30:55;;;;;;;2.00;1.17;;;15.90;63.20;;;;;;5009616;28;20453;-71
2023/06/04 03:33:22;;;;;;;1.43;1.30;;;15.90;64.30;;;;;;5008402;28;20544;-71
2023/06/04 03:35:49;;;;;;;1.87;1.30;;;16.00;63.70;;;;;;4999279;28;20587;-69
2023/06/04 03:38:15;;;;;;;2.00;1.70;;;16.00;63.40;;;;;;4992422;28;20255;-71
2023/06/04 03:40:42;;;;;;;1.60;1.50;;;16.00;63.70;;;;;;5009240;28;20445;-70
2023/06/04 03:43:09;;;;;;;1.97;1.43;;;16.00;63.40;;;;;;5009020;28;20450;-70
2023/06/04 03:45:36;;;;;;;0.97;0.97;;;16.10;63.60;;;;;;5007000;28;20453;-70
2023/06/04 03:48:02;;;;;;;1.30;1.20;;;16.10;63.40;;;;;;4999490;28;20460;-70
2023/06/04 03:50:29;;;;;;;1.90;1.27;;;16.10;63.50;;;;;;5008632;28;20220;-70
2023/06/04 03:52:56;;;;;;;2.50;1.47;;;16.10;63.50;;;;;;5005908;28;20552;-71
2023/06/04 03:55:24;;;;;;;1.27;1.07;;;16.00;63.40;;;;;;4989503;28;20470;-71
2023/06/04 03:57:50;;;;;;;1.50;1.30;;;16.00;63.30;;;;;;4992770;28;20465;-70
2023/06/04 04:00:16;;;;;;;1.70;1.20;;;16.00;63.40;;;;;;5006333;28;20526;-71
2023/06/04 04:02:48;;;;;;;5.10;1.73;;;16.00;63.20;;;;;;5007073;28;20218;-69
2023/06/04 04:05:20;;;;;;;2.13;1.30;;;16.00;63.50;;;;;;5007310;28;20467;-70
2023/06/04 04:07:48;;;;;;;2.00;1.33;;;16.10;63.60;;;;;;5008777;28;20453;-71
2023/06/04 04:10:14;;;;;;;2.30;1.50;;;16.10;63.70;;;;;;5007613;28;20457;-70
2023/06/04 04:12:40;;;;;;;1.90;1.80;;;16.10;63.90;;;;;;5007681;28;21010;-71
2023/06/04 04:15:06;;;;;;;4.80;1.53;;;16.10;63.90;;;;;;5008983;28;20507;-71
2023/06/04 04:17:33;;;;;;;1.00;0.97;;;16.10;63.80;;;;;;5008618;28;20441;-70
2023/06/04 04:19:58;;;;;;;1.53;1.20;;;16.10;64.00;;;;;;4989864;28;20484;-70
2023/06/04 04:22:24;;;;;;;2.37;1.43;;;16.10;64.10;;;;;;5009723;28;20227;-71
2023/06/04 04:24:50;;;;;;;1.40;1.17;;;16.10;64.20;;;;;;4998633;28;20280;-70
2023/06/04 04:27:16;;;;;;;1.67;1.43;;;16.10;64.20;;;;;;4991426;28;20463;-71
2023/06/04 04:29:43;;;;;;;1.40;1.30;;;16.00;65.30;;;;;;4993753;28;20468;-69
2023/06/04 04:32:12;;;;;;;2.10;1.17;;;16.00;64.90;;;;;;5007584;28;20225;-70
2023/06/04 04:34:54;;;;;;;3.00;1.37;;;16.00;64.90;;;;;;5007088;28;20456;-69
2023/06/04 04:37:24;;;;;;;3.63;1.07;;;16.00;65.10;;;;;;5012112;28;20448;-71
2023/06/04 04:39:52;;;;;;;1.93;1.50;;;16.10;65.20;;;;;;4992377;28;20453;-71
2023/06/04 04:42:19;;;;;;;1.20;1.13;;;16.10;65.40;;;;;;4991350;28;20488;-71
2023/06/04 04:44:48;;;;;;;1.57;1.47;;;16.10;65.60;;;;;;5008373;28;20456;-69
2023/06/04 04:47:15;;;;;;;1.83;1.37;;;16.10;65.60;;;;;;5008043;28;20787;-69
2023/06/04 04:49:41;;;;;;;1.30;1.20;;;16.10;65.70;;;;;;4991779;28;20461;-69
2023/06/04 04:52:06;;;;;;;1.90;1.50;;;16.10;65.90;;;;;;4993170;28;20472;-71
2023/06/04 04:54:32;;;;;;;1.40;1.30;;;16.10;66.10;;;;;;4995230;28;20210;-71
2023/06/04 04:56:58;;;;;;;6.90;1.40;;;16.10;66.00;;;;;;4992913;28;20684;-69
2023/06/04 04:59:23;;;;;;;1.83;1.37;;;16.10;66.10;;;;;;5007306;28;20218;-70
2023/06/04 05:01:49;;;;;;;1.40;1.30;;;16.20;66.60;;;;;;5007430;28;20216;-71
2023/06/04 05:04:15;;;;;;;1.97;0.83;;;16.20;66.50;;;;;;5007657;28;20214;-71
2023/06/04 05:06:41;;;;;;;1.50;1.40;;;16.20;66.90;;;;;;5009283;28;20225;-71
2023/06/04 05:09:07;;;;;;;1.40;1.30;;;16.30;67.40;;;;;;5006734;28;20547;-70
2023/06/04 05:11:33;;;;;;;1.13;1.03;;;16.30;67.60;;;;;;5007807;28;20218;-70
2023/06/04 05:14:00;;;;;;;6.33;1.73;;;16.30;67.50;;;;;;4998502;28;20468;-70
2023/06/04 05:16:27;;;;;;;1.13;1.10;;;16.40;67.70;;;;;;5006899;28;20455;-70
2023/06/04 05:18:56;;;;;;;1.30;1.20;;;16.40;67.70;;;;;;5003514;28;21056;-71
2023/06/04 05:21:23;;;;;;;3.03;1.20;;;16.40;67.70;;;;;;5011499;28;20455;-71
2023/06/04 05:23:56;;;;;;;1.33;1.13;;;16.40;68.20;;;;;;5008919;28;20471;-70
2023/06/04 05:26:25;;;;;;;2.07;1.27;;;16.40;69.90;;;;;;5007567;28;20453;-71
2023/06/04 05:28:53;;;;;;;1.60;1.50;;;16.50;69.30;;;;;;4992445;28;20530;-70
2023/06/04 05:31:20;;;;;;;2.03;1.83;;;16.50;69.10;;;;;;4992266;28;20463;-71
2023/06/04 05:33:47;;;;;;;6.93;1.60;;;16.60;70.30;;;;;;5004473;28;20477;-70
2023/06/04 05:36:15;;;;;;;1.50;1.37;;;16.60;69.40;;;;;;5008623;28;20598;-70
2023/06/04 05:38:57;;;;;;;3.23;1.37;;;16.60;69.40;;;;;;4994629;28;20822;-72
2023/06/04 05:41:28;;;;;;;1.70;1.60;;;16.60;69.70;;;;;;5005045;28;20444;-71
2023/06/04 05:43:54;;;;;;;2.00;1.50;;;16.70;70.30;;;;;;4990539;28;20516;-71
2023/06/04 05:46:21;;;;;;;1.27;1.17;;;16.70;70.00;;;;;;5006800;28;20556;-70
2023/06/04 05:48:47;;;;;;;1.20;1.10;;;16.70;70.80;;;;;;4990279;28;21076;-71
2023/06/04 05:51:14;;;;;;;1.40;1.30;;;16.80;71.20;;;;;;4988847;28;20469;-71
2023/06/04 05:53:40;;;;;;;2.33;1.33;;;16.80;70.20;;;;;;5006426;28;20481;-69
2023/06/04 05:56:06;;;;;;;2.67;1.50;;;16.90;70.10;;;;;;4989985;28;20469;-70
2023/06/04 05:58:36;;;;;;;2.77;1.83;;;17.00;71.10;;;;;;4994403;28;20217;-70
2023/06/04 06:01:03;;;;;;;2.60;1.43;;;17.10;71.00;;;;;;5007113;28;20217;-71
2023/06/04 06:03:28;;;;;;;1.23;1.13;;;17.10;70.70;;;;;;5007837;28;20502;-74
2023/06/04 06:05:56;;;;;;;1.30;1.20;;;17.10;70.20;;;;;;4986405;28;20214;-70
2023/06/04 06:08:22;;;;;;;1.47;1.30;;;17.10;70.50;;;;;;4991657;28;20473;-71
2023/06/04 06:10:48;;;;;;;3.30;1.60;;;17.20;70.50;;;;;;5008213;28;20518;-71
2023/06/04 06:13:15;;;;;;;2.20;1.50;;;17.20;69.70;;;;;;4994397;28;20484;-70
2023/06/04 06:15:40;;;;;;;1.80;1.33;;;17.30;69.40;;;;;;4993809;28;20240;-71
2023/06/04 06:18:06;;;;;;;1.50;1.40;;;17.40;69.50;;;;;;5004624;28;20967;-71
2023/06/04 06:20:32;;;;;;;1.60;1.43;;;17.50;69.60;;;;;;5007544;28;20221;-71
2023/06/04 06:23:05;;;;;;;2.30;1.10;;;17.60;68.80;;;;;;5003690;28;20707;-70
2023/06/04 06:25:31;;;;;;;1.50;1.30;;;17.60;68.80;;;;;;5004448;28;20249;-70
2023/06/04 06:28:02;;;;;;;2.27;1.50;;;17.70;69.10;;;;;;4990864;28;20465;-70
2023/06/04 06:30:28;;;;;;;1.87;1.40;;;17.70;69.90;;;;;;4993789;28;20457;-71
2023/06/04 06:32:54;;;;;;;1.73;1.27;;;17.80;70.10;;;;;;5012289;28;20232;-70
2023/06/04 06:35:20;;;;;;;3.00;1.60;;;17.90;69.90;;;;;;5012357;28;20218;-70
2023/06/04 06:37:45;;;;;;;1.77;1.67;;;17.90;68.10;;;;;;5006752;28;20272;-71
2023/06/04 06:40:11;;;;;;;1.63;1.33;;;17.90;68.40;;;;;;5009463;28;20224;-70
2023/06/04 06:42:37;;;;;;;2.00;1.50;;;18.00;68.40;;;;;;5012907;28;20234;-69
2023/06/04 06:45:03;;;;;;;2.77;1.50;;;18.10;69.00;;;;;;4996436;28;20221;-70
2023/06/04 06:47:28;;;;;;;2.70;1.53;;;18.10;67.70;;;;;;5011844;28;20226;-70
2023/06/04 06:49:54;;;;;;;2.83;1.37;;;18.10;67.90;;;;;;5017119;28;20221;-71
2023/06/04 06:52:20;;;;;;;1.60;1.47;;;18.20;68.20;;;;;;4993141;28;20607;-71
2023/06/04 06:54:46;;;;;;;5.17;1.53;;;18.30;68.30;;;;;;5011333;28;20469;-69
2023/06/04 06:57:13;;;;;;;1.77;1.30;;;18.30;67.10;;;;;;5011007;28;20461;-71
2023/06/04 06:59:38;;;;;;;1.47;1.37;;;18.40;67.60;;;;;;4998025;28;20234;-71
2023/06/04 07:02:05;;;;;;;4.20;1.53;;;18.40;66.70;;;;;;5005670;28;20461;-69
2023/06/04 07:04:30;;;;;;;2.33;1.30;;;18.50;66.30;;;;;;4991322;28;20225;-71
2023/06/04 07:06:56;;;;;;;4.87;1.93;;;18.60;66.40;;;;;;5006083;28;20461;-70
2023/06/04 07:09:22;;;;;;;3.60;1.70;;;18.60;66.10;;;;;;5011511;28;20232;-70
2023/06/04 07:11:47;;;;;;;2.20;2.00;;;18.60;66.10;;;;;;5005159;28;20218;-71
2023/06/04 07:14:13;;;;;;;1.90;1.50;;;18.70;66.40;;;;;;5012289;28;20688;-69
2023/06/04 07:16:39;;;;;;;3.43;1.70;;;18.80;66.40;;;;;;5012557;28;20218;-71
2023/06/04 07:19:05;;;;;;;4.97;1.57;;;18.90;66.50;;;;;;5007844;28;20467;-71
2023/06/04 07:21:30;;;;;;;1.87;1.53;;;19.00;66.30;;;;;;5011642;28;20229;-70
2023/06/04 07:23:56;;;;;;;1.27;1.17;;;19.00;66.40;;;;;;4990353;28;20304;-71
2023/06/04 07:26:22;;;;;;;1.40;1.30;;;19.10;66.50;;;;;;5019780;28;20633;-71
2023/06/04 07:28:47;;;;;;;4.37;1.50;;;19.10;65.80;;;;;;5010174;28;20703;-71
2023/06/04 07:31:16;;;;;;;1.63;1.53;;;19.20;65.30;;;;;;5008706;28;20214;-71
2023/06/04 07:33:43;;;;;;;1.83;1.70;;;19.30;65.90;;;;;;5013723;28;20220;-70
2023/06/04 07:36:15;;;;;;;1.17;1.07;;;19.30;64.80;;;;;;5008935;28;20536;-71
2023/06/04 07:38:41;;;;;;;2.90;1.50;;;19.50;64.40;;;;;;5012608;28;20460;-70
2023/06/04 07:41:07;;;;;;;2.30;1.43;;;19.60;64.30;;;;;;4993845;28;20523;-71
2023/06/04 07:43:35;;;;;;;3.77;1.50;;;19.60;64.50;;;;;;5011180;28;20296;-71
2023/06/04 07:46:04;;;;;;;2.63;1.53;;;19.70;64.30;;;;;;5014358;28;20986;-71
2023/06/04 07:48:32;;;;;;;1.70;1.60;;;19.80;64.70;;;;;;5023852;28;20528;-68
2023/06/04 07:50:59;;;;;;;1.77;1.67;;;19.90;64.50;;;;;;5013531;28;20468;-70
2023/06/04 07:53:25;;;;;;;1.90;1.10;;;19.90;64.00;;;;;;5010479;28;25621;-70
2023/06/04 07:55:51;;;;;;;1.97;1.70;;;19.90;63.80;;;;;;5007411;28;20570;-70
2023/06/04 07:58:17;;;;;;;2.20;1.50;;;20.00;63.80;;;;;;4993993;28;20457;-73
2023/06/04 08:00:43;;;;;;;2.23;1.80;;;20.00;63.30;;;;;;5013021;28;21057;-71
2023/06/04 08:03:08;;;;;;;3.13;1.60;;;20.10;63.10;;;;;;5014930;28;20217;-70
2023/06/04 08:05:35;;;;;;;2.33;1.50;;;20.10;62.70;;;;;;5013452;28;20225;-71
2023/06/04 08:08:01;;;;;;;2.50;1.60;;;20.20;63.20;;;;;;5010087;28;20357;-71
2023/06/04 08:10:26;;;;;;;2.10;1.80;;;20.40;63.20;;;;;;5003637;28;20452;-70
2023/06/04 08:12:52;;;;;;;2.10;1.40;;;20.50;63.20;;;;;;4996979;28;20469;-70
2023/06/04 08:15:18;;;;;;;2.23;1.33;;;20.50;63.00;;;;;;5004542;28;20214;-71
2023/06/04 08:17:43;;;;;;;2.00;1.67;;;20.60;62.60;;;;;;5007521;28;20688;-70
2023/06/04 08:20:09;;;;;;;1.73;1.63;;;20.70;62.60;;;;;;5003531;28;20358;-70
2023/06/04 08:22:35;;;;;;;2.07;1.53;;;20.80;62.50;;;;;;5005662;28;20214;-70
2023/06/04 08:25:01;;;;;;;1.97;1.77;;;20.70;62.50;;;;;;5012194;28;20966;-70
2023/06/04 08:27:26;;;;;;;2.37;1.53;;;20.80;62.80;;;;;;5013594;28;20666;-70
2023/06/04 08:29:52;;;;;;;1.67;1.57;;;20.90;62.50;;;;;;4994517;28;20232;-69
2023/06/04 08:32:18;;;;;;;1.67;1.57;;;21.00;62.80;;;;;;5010571;28;20236;-72
2023/06/04 08:34:44;;;;;;;4.07;1.70;;;21.10;62.60;;;;;;5010750;28;20643;-69
2023/06/04 08:37:10;;;;;;;2.10;1.40;;;21.20;62.20;;;;;;5013394;28;20460;-71
2023/06/04 08:39:36;;;;;;;1.73;1.63;;;21.30;62.60;;;;;;5014012;28;20260;-69
2023/06/04 08:42:09;;;;;;;2.00;1.87;;;21.40;62.10;;;;;;4992679;28;20284;-71
2023/06/04 08:44:35;;;;;;;3.03;1.90;;;21.50;62.70;;;;;;5015489;28;20364;-70
2023/06/04 08:47:05;;;;;;;4.00;1.50;;;21.70;62.60;;;;;;5006310;28;20971;-71
2023/06/04 08:49:36;;;;;;;1.63;1.53;;;21.80;61.90;;;;;;4995778;28;20226;-71
2023/06/04 08:52:02;;;;;;;1.67;1.57;;;21.80;61.60;;;;;;5010128;28;20476;-71
2023/06/04 08:54:30;;;;;;;2.27;1.90;;;21.80;61.80;;;;;;4995437;28;20543;-70
2023/06/04 08:56:57;;;;;;;1.97;1.87;;;21.80;61.90;;;;;;5008870;28;20531;-71
2023/06/04 08:59:23;;;;;;;1.87;1.67;;;22.00;61.70;;;;;;5007549;28;21086;-71
2023/06/04 09:01:53;;;;;;;1.70;1.60;;;22.10;61.60;;;;;;5011622;28;20542;-70
2023/06/04 09:04:19;;;;;;;2.20;2.00;;;22.20;61.80;;;;;;5012063;28;20228;-71
2023/06/04 09:06:45;;;;;;;1.90;1.80;;;22.20;61.80;;;;;;5008178;28;20455;-71
2023/06/04 09:09:15;;;;;;;2.67;1.80;;;22.30;62.20;;;;;;5000972;28;20499;-71
2023/06/04 09:11:55;;;;;;;1.80;1.70;;;22.20;61.00;;;;;;5005248;28;20546;-72
2023/06/04 09:14:21;;;;;;;3.50;1.60;;;22.30;61.10;;;;;;5004138;28;20520;-71
2023/06/04 09:16:52;;;;;;;1.57;1.40;;;22.40;62.00;;;;;;4997140;28;20496;-71
2023/06/04 09:19:19;;;;;;;2.07;1.80;;;22.40;62.10;;;;;;5006905;28;20257;-70
2023/06/04 09:21:56;;;;;;;1.53;1.43;;;22.60;61.80;;;;;;5004765;28;20467;-71
2023/06/04 09:24:24;;;;;;;2.50;1.80;;;22.60;61.40;;;;;;5005944;28;20472;-71
2023/06/04 09:26:51;;;;;;;5.00;1.53;;;22.70;61.10;;;;;;4987044;28;20953;-71
2023/06/04 09:29:17;;;;;;;2.87;2.00;;;22.80;61.40;;;;;;5000443;28;20484;-70
2023/06/04 09:31:56;;;;;;;3.27;1.83;;;22.90;60.90;;;;;;5003727;28;20551;-71
2023/06/04 09:34:29;;;;;;;2.70;2.00;;;23.00;61.50;;;;;;5002633;28;20535;-70
2023/06/04 09:36:56;;;;;;;4.07;1.83;;;23.10;60.90;;;;;;4998501;28;20449;-70
2023/06/04 09:39:23;;;;;;;2.53;1.70;;;23.10;61.10;;;;;;5001141;28;20468;-71
2023/06/04 09:42:02;;;;;;;1.80;1.70;;;23.20;61.40;;;;;;5001888;28;20494;-71
2023/06/04 09:44:31;;;;;;;2.23;2.00;;;23.00;61.60;;;;;;5003186;28;20464;-70
2023/06/04 09:46:57;;;;;;;1.87;1.70;;;23.10;61.20;;;;;;5005006;28;20498;-69
2023/06/04 09:49:23;;;;;;;1.93;1.80;;;23.00;61.40;;;;;;5000193;28;20452;-72
2023/06/04 09:51:50;;;;;;;2.23;2.00;;;23.10;60.50;;;;;;4984816;28;20491;-71
2023/06/04 09:54:16;;;;;;;1.87;1.70;;;23.20;61.10;;;;;;5002506;28;20680;-71
2023/06/04 09:56:42;;;;;;;1.67;1.57;;;23.40;61.30;;;;;;5004486;28;20528;-70
2023/06/04 09:59:13;;;;;;;1.50;1.40;;;22.90;61.30;;;;;;4999162;28;20572;-71
2023/06/04 10:01:41;;;;;;;1.73;1.63;;;23.10;61.10;;;;;;5006284;28;20451;-69
2023/06/04 10:04:08;;;;;;;2.20;1.93;;;23.10;60.70;;;;;;4989182;28;21024;-70
2023/06/04 10:06:35;;;;;;;3.10;1.57;;;23.60;60.50;;;;;;4992820;28;20464;-71
2023/06/04 10:09:08;;;;;;;2.27;2.07;;;23.70;60.30;;;;;;5004751;28;20499;-72
2023/06/04 10:11:39;;;;;;;2.40;1.90;;;23.60;59.80;;;;;;5004101;28;20481;-68
2023/06/04 10:14:30;;;;;;;1.70;1.60;;;23.60;60.20;;;;;;5004256;28;20486;-70
2023/06/04 10:16:58;;;;;;;1.87;1.77;;;23.60;59.90;;;;;;5006715;28;20468;-71
2023/06/04 10:19:25;;;;;;;2.17;1.80;;;23.70;59.90;;;;;;5009279;28;20652;-67
2023/06/04 10:21:52;;;;;;;2.00;1.50;;;24.10;59.50;;;;;;5008196;28;20456;-68
2023/06/04 10:24:20;;;;;;;1.70;1.60;;;24.30;59.60;;;;;;5000735;28;20488;-70
2023/06/04 10:26:48;;;;;;;1.70;1.60;;;24.40;59.50;;;;;;4993143;28;20460;-72
2023/06/04 10:29:14;;;;;;;1.93;1.73;;;24.30;59.30;;;;;;5007777;28;20486;-71
2023/06/04 10:31:41;;;;;;;1.83;1.73;;;24.10;59.50;;;;;;5005851;28;20456;-71
2023/06/04 10:34:07;;;;;;;1.83;1.73;;;23.90;59.90;;;;;;5005277;28;21000;-72
2023/06/04 10:36:42;;;;;;;1.60;1.50;;;23.70;59.80;;;;;;4988848;28;20494;-70
2023/06/04 10:39:08;;;;;;;1.93;1.70;;;23.60;59.80;;;;;;5000759;28;21059;-72
2023/06/04 10:41:34;;;;;;;1.80;1.70;;;24.00;59.40;;;;;;5004781;28;20460;-69
2023/06/04 10:44:01;;;;;;;1.93;1.83;;;24.30;59.40;;;;;;5007675;28;20220;-71
2023/06/04 10:46:39;;;;;;;3.00;2.37;;;24.60;59.30;;;;;;5004376;28;21018;-71
2023/06/04 10:49:05;;;;;;;2.50;2.07;;;24.60;59.10;;;;;;5003283;28;20841;-70
2023/06/04 10:51:33;;;;;;;4.13;2.30;;;24.70;58.80;;;;;;5000591;28;20456;-71
2023/06/04 10:54:01;;;;;;;2.60;1.80;;;24.80;58.80;;;;;;5002330;28;20222;-70
2023/06/04 10:56:40;;;;;;;2.57;1.70;;;24.70;58.90;;;;;;5005151;28;21048;-72
2023/06/04 10:59:16;;;;;;;1.90;1.80;;;24.50;58.40;;;;;;5004007;28;20484;-72
2023/06/04 11:01:43;;;;;;;3.40;1.83;;;24.40;58.40;;;;;;4992224;28;20471;-71
2023/06/04 11:04:24;;;;;;;1.93;1.60;;;24.70;58.70;;;;;;4990776;28;20464;-71
2023/06/04 11:07:10;;;;;;;1.70;1.60;;;24.90;58.40;;;;;;5004774;28;20476;-68
2023/06/04 11:09:37;;;;;;;1.97;1.80;;;24.80;58.60;;;;;;5005209;28;20468;-71
2023/06/04 11:12:05;;;;;;;1.73;1.50;;;24.90;58.50;;;;;;5005500;28;20538;-69
2023/06/04 11:14:31;;;;;;;2.60;1.87;;;24.90;58.50;;;;;;5006102;28;20538;-70
2023/06/04 11:16:57;;;;;;;2.53;1.97;;;24.60;58.10;;;;;;4985228;28;20493;-70
2023/06/04 11:19:23;;;;;;;2.07;1.83;;;24.90;58.50;;;;;;4994698;28;20214;-72
2023/06/04 11:21:49;;;;;;;1.93;1.70;;;24.70;57.80;;;;;;5007443;28;20208;-69
2023/06/04 11:24:16;;;;;;;2.47;2.27;;;24.40;57.80;;;;;;4991240;28;20218;-71
2023/06/04 11:26:42;;;;;;;4.17;2.30;;;24.70;57.50;;;;;;5004985;28;20451;-70
2023/06/04 11:29:11;;;;;;;4.20;2.17;;;24.80;57.50;;;;;;5004234;28;21158;-69
2023/06/04 11:31:47;;;;;;;5.63;1.90;;;24.50;57.70;;;;;;5004440;28;20309;-71
2023/06/04 11:34:23;;;;;;;7.80;2.47;;;24.60;57.30;;;;;;5005207;28;21017;-68
2023/06/04 11:36:52;;;;;;;1.90;1.70;;;24.10;57.70;;;;;;5005059;28;20871;-70
2023/06/04 11:39:19;;;;;;;1.90;1.80;;;24.00;58.30;;;;;;5004803;28;20547;-71
2023/06/04 11:41:45;;;;;;;2.13;2.03;;;24.00;58.00;;;;;;5005582;28;20474;-70
2023/06/04 11:44:12;;;;;;;1.80;1.70;;;24.10;57.90;;;;;;4989836;28;20468;-70
2023/06/04 11:46:44;;;;;;;3.20;1.97;;;24.50;57.60;;;;;;5003129;28;20472;-71
2023/06/04 11:49:16;;;;;;;2.50;2.30;;;24.80;57.20;;;;;;5005366;28;20649;-71
2023/06/04 11:51:49;;;;;;;2.20;2.00;;;24.90;57.10;;;;;;4998666;28;20473;-71
2023/06/04 11:54:17;;;;;;;2.03;1.70;;;25.40;56.90;;;;;;4988444;28;20467;-72
2023/06/04 11:56:46;;;;;;;2.17;1.97;;;25.50;56.90;;;;;;4997461;28;21017;-72
2023/06/04 11:59:14;;;;;;;2.03;1.93;;;25.60;57.10;;;;;;4987616;28;20488;-71
2023/06/04 12:01:47;;;;;;;2.00;1.90;;;25.50;56.70;;;;;;5005429;28;20469;-68
2023/06/04 12:04:18;;;;;;;2.23;2.00;;;25.80;56.40;;;;;;5002172;28;21172;-72
2023/06/04 12:07:01;;;;;;;2.10;2.00;;;26.00;56.50;;;;;;5003767;28;20457;-71
2023/06/04 12:09:31;;;;;;;2.73;2.03;;;26.00;56.60;;;;;;5001238;28;20448;-71
2023/06/04 12:12:05;;;;;;;2.40;2.03;;;25.80;56.90;;;;;;4991962;28;20460;-71
2023/06/04 12:14:31;;;;;;;5.40;2.30;;;25.30;56.70;;;;;;4990278;28;20445;-70
2023/06/04 12:16:58;;;;;;;2.27;2.10;;;24.60;56.90;;;;;;4989066;28;20461;-71
2023/06/04 12:19:25;;;;;;;2.43;2.23;;;24.90;56.30;;;;;;5007632;28;20472;-70
2023/06/04 12:22:06;;;;;;;2.20;1.90;;;25.40;56.60;;;;;;5009002;28;20448;-72
2023/06/04 12:24:52;;;;;;;2.67;1.90;;;25.50;57.10;;;;;;5003359;28;20835;-70
2023/06/04 12:27:21;;;;;;;2.27;2.17;;;25.40;56.40;;;;;;5006193;28;20475;-71
2023/06/04 12:30:06;;;;;;;1.93;1.80;;;25.10;57.00;;;;;;5005305;28;20526;-70
2023/06/04 12:32:35;;;;;;;2.60;1.80;;;25.20;56.50;;;;;;5002990;28;20551;-70
2023/06/04 12:35:01;;;;;;;2.27;1.90;;;25.40;57.40;;;;;;5003335;28;20464;-70
2023/06/04 12:37:27;;;;;;;3.30;2.10;;;25.80;56.30;;;;;;5004477;28;20547;-72
2023/06/04 12:39:54;;;;;;;2.30;2.10;;;25.30;56.40;;;;;;4987134;28;20487;-72
2023/06/04 12:42:21;;;;;;;2.50;1.80;;;25.00;56.70;;;;;;4987238;28;20496;-73
2023/06/04 12:44:46;;;;;;;2.50;2.30;;;25.40;56.20;;;;;;5005586;28;20486;-73
2023/06/04 12:47:12;;;;;;;2.70;2.27;;;25.80;55.60;;;;;;4988610;28;21320;-71
2023/06/04 12:49:38;;;;;;;3.47;2.20;;;26.40;55.90;;;;;;5009877;28;20841;-70
2023/06/04 12:52:04;;;;;;;2.10;2.00;;;26.60;55.30;;;;;;4996237;28;20503;-71